Khalkh-Gol, Mongolia
Current Conditions -  °F | °C
As of 1:00 PM on Saturday 29 Nov 2014 (Local Time) from UIAA Reporting Station
Scattered Clouds Scattered Clouds  
Wind Chill:   Ceiling: Unl
Heat Index:   Visibility: 6mi
Dew Point: -9°   Wind: 0mph
Humidity: 66%   Direction: NA
Pressure: 30.09"   Gusts: NA
Location:  47.62°N, 118.62°E
Report Text: UIAA 290500Z 00000MPS 9999 SCT200 M18/M23 Q1019 NOSIG RMKQFE705 29CLRD70
Loading
Personal Weather Stations






























Interactive Weather Map New forecast layout! Learn more

10-Day Weather Forecast

Advertisements
Track Severe Weather on mobile